Time;durP1;ratioP1;P1;durP2;ratioP2;P2;SDS_P1;SDS_P2;PMS_P1;PMS_P2;Temp;Humidity;BMP_temperature;BMP_pressure;BME280_temperature;BME280_humidity;BME280_pressure;Samples;Min_cycle;Max_cycle;Signal;HPM_P1;HPM_P2
2022/07/10 00:02:21;;;;;;;5.53;4.40;;;18.40;81.10;;;18.84;60.51;98290.78;5027009;28;20053;-41
2022/07/10 00:04:49;;;;;;;6.72;4.85;;;18.40;81.20;;;18.79;60.72;98290.53;5025925;28;20057;-42
2022/07/10 00:07:17;;;;;;;7.40;4.80;;;18.30;81.60;;;18.77;60.56;98295.28;5028088;28;20044;-41
2022/07/10 00:09:44;;;;;;;5.40;4.90;;;18.20;81.90;;;18.74;60.91;98291.09;5027376;28;20047;-41
2022/07/10 00:12:12;;;;;;;5.05;4.57;;;18.20;82.30;;;18.63;61.14;98291.63;5027614;28;20359;-41
2022/07/10 00:14:40;;;;;;;6.07;4.85;;;18.10;83.30;;;18.53;61.42;98286.59;5027955;28;20367;-41
2022/07/10 00:17:08;;;;;;;5.22;4.72;;;18.00;84.10;;;18.41;61.78;98285.47;5027566;28;20618;-41
2022/07/10 00:19:36;;;;;;;5.63;4.90;;;17.80;84.90;;;18.35;62.00;98294.34;5027504;28;20059;-43
2022/07/10 00:22:04;;;;;;;4.90;4.50;;;17.70;85.80;;;18.35;61.90;98292.47;5027577;28;20057;-42
2022/07/10 00:24:32;;;;;;;5.30;4.80;;;17.80;85.00;;;18.34;61.85;98287.28;5027189;28;20057;-42
2022/07/10 00:27:00;;;;;;;6.28;5.13;;;17.80;84.80;;;18.20;62.25;98292.56;5026345;28;20045;-42
2022/07/10 00:29:27;;;;;;;5.40;4.90;;;17.70;85.50;;;18.07;63.27;98290.59;5027592;28;20370;-41
2022/07/10 00:31:55;;;;;;;7.93;5.55;;;17.60;86.50;;;18.15;62.47;98288.81;5028244;28;20053;-41
2022/07/10 00:34:23;;;;;;;6.47;5.18;;;17.60;86.80;;;18.11;62.71;98291.03;5028127;28;20042;-41
2022/07/10 00:36:51;;;;;;;7.53;5.68;;;17.60;87.00;;;18.05;63.05;98284.56;5027947;28;20275;-41
2022/07/10 00:39:19;;;;;;;5.95;5.05;;;17.60;87.60;;;18.01;63.15;98288.69;5027221;28;20362;-41
2022/07/10 00:41:47;;;;;;;6.25;5.60;;;17.60;87.60;;;18.08;62.87;98286.84;5026931;28;20053;-41
2022/07/10 00:44:14;;;;;;;7.45;5.47;;;17.70;87.30;;;18.01;63.30;98290.50;5028259;28;20061;-41
2022/07/10 00:46:42;;;;;;;8.63;6.50;;;17.60;87.70;;;18.08;62.62;98283.34;5027145;28;20057;-42
2022/07/10 00:49:10;;;;;;;9.07;5.90;;;17.60;87.40;;;18.08;62.95;98284.16;5027032;28;20055;-41
2022/07/10 00:51:39;;;;;;;7.20;6.55;;;17.70;87.90;;;18.03;63.10;98280.38;5027599;28;20049;-40
2022/07/10 00:54:07;;;;;;;8.85;6.07;;;17.60;87.50;;;17.97;63.30;98287.41;5027912;28;20041;-41
2022/07/10 00:56:35;;;;;;;7.30;6.40;;;17.50;88.20;;;17.83;64.18;98277.47;5041995;28;20056;-41
2022/07/10 00:59:03;;;;;;;7.25;6.55;;;17.40;89.30;;;17.82;63.83;98276.66;5042405;28;20238;-41
2022/07/10 01:01:33;;;;;;;10.23;7.22;;;17.40;90.20;;;17.88;63.66;98280.47;5027323;28;20044;-40
2022/07/10 01:04:01;;;;;;;7.32;6.32;;;17.40;90.10;;;17.94;63.46;98281.56;5026774;28;20060;-41
2022/07/10 01:06:29;;;;;;;8.18;7.38;;;17.50;89.50;;;17.95;63.46;98280.53;5026625;28;20049;-41
2022/07/10 01:08:56;;;;;;;8.25;7.38;;;17.50;90.00;;;17.93;63.40;98279.88;5027301;28;20272;-43
2022/07/10 01:11:24;;;;;;;8.43;7.45;;;17.50;89.90;;;17.93;63.42;98279.88;5027291;28;20053;-42
2022/07/10 01:13:52;;;;;;;8.13;7.32;;;17.50;89.50;;;17.98;63.17;98278.28;5025149;28;20049;-41
2022/07/10 01:16:22;;;;;;;8.85;7.63;;;17.60;89.50;;;17.87;63.89;98279.66;5026026;28;20060;-41
2022/07/10 01:18:49;;;;;;;7.78;6.75;;;17.50;89.90;;;17.87;63.39;98278.78;5042069;28;20053;-41
2022/07/10 01:21:43;;;;;;;7.97;7.18;;;17.40;90.10;;;17.93;63.37;98278.00;5027476;28;20089;-41
2022/07/10 01:24:12;;;;;;;9.13;8.23;;;17.50;90.30;;;17.94;63.18;98274.31;5026381;28;20057;-43
2022/07/10 01:26:42;;;;;;;8.80;7.90;;;17.50;89.50;;;17.87;63.54;98281.47;5025214;28;20060;-41
2022/07/10 01:29:11;;;;;;;9.52;8.45;;;17.40;90.10;;;17.82;64.05;98281.22;5026674;28;20055;-41
2022/07/10 01:31:39;;;;;;;9.02;8.13;;;17.40;90.70;;;17.85;63.68;98280.84;5026682;28;20077;-41
2022/07/10 01:34:11;;;;;;;9.40;8.05;;;17.30;91.10;;;17.78;63.85;98278.06;5027638;28;20045;-41
2022/07/10 01:36:40;;;;;;;10.77;9.48;;;17.30;92.30;;;17.74;64.01;98275.94;5026805;28;20056;-41
2022/07/10 01:39:08;;;;;;;9.82;8.93;;;17.20;93.10;;;17.68;64.24;98266.75;5025651;28;20050;-41
2022/07/10 01:41:36;;;;;;;11.43;10.20;;;17.20;93.80;;;17.73;64.02;98280.47;5025089;28;20064;-42
2022/07/10 01:44:04;;;;;;;9.48;8.40;;;17.30;93.60;;;17.73;64.09;98275.09;5025197;28;20057;-41
2022/07/10 01:46:31;;;;;;;10.30;9.25;;;17.30;94.10;;;17.71;64.26;98274.47;5025950;28;20065;-41
2022/07/10 01:48:59;;;;;;;11.50;9.90;;;17.20;94.00;;;17.69;64.23;98280.03;5027089;28;20332;-41
2022/07/10 01:51:27;;;;;;;11.00;9.93;;;17.20;95.10;;;17.66;64.26;98279.56;5026285;28;20052;-42
2022/07/10 01:53:55;;;;;;;10.65;9.65;;;17.20;95.40;;;17.69;64.24;98274.66;5025912;28;20056;-41
2022/07/10 01:56:23;;;;;;;10.85;9.75;;;17.30;95.10;;;17.71;64.21;98286.06;5024712;28;20371;-41
2022/07/10 01:58:51;;;;;;;10.43;9.38;;;17.30;94.70;;;17.70;64.50;98283.59;5025031;28;20049;-41
2022/07/10 02:01:18;;;;;;;11.13;10.02;;;17.30;95.10;;;17.66;64.72;98282.28;5023592;28;20049;-41
2022/07/10 02:06:32;;;;;;;10.35;9.10;;;17.20;96.50;;;17.68;64.62;98277.53;5025785;28;20071;-42
2022/07/10 02:09:00;;;;;;;11.00;9.88;;;17.30;96.70;;;17.75;64.70;98278.44;5026794;28;20050;-42
2022/07/10 02:11:28;;;;;;;11.02;9.80;;;17.40;96.30;;;17.82;64.53;98284.72;5026284;28;20347;-41
2022/07/10 02:13:56;;;;;;;12.77;9.82;;;17.50;95.80;;;17.81;64.46;98284.91;5025726;28;20053;-41
2022/07/10 02:16:24;;;;;;;11.25;10.02;;;17.40;95.70;;;17.82;64.58;98276.66;5025620;28;20057;-42
2022/07/10 02:18:51;;;;;;;11.80;10.13;;;17.40;95.70;;;17.72;65.00;98284.22;5025074;28;20050;-42
2022/07/10 02:21:19;;;;;;;12.15;9.35;;;17.30;97.10;;;17.76;64.85;98280.13;5025808;28;20091;-41
2022/07/10 02:23:47;;;;;;;12.35;10.85;;;17.40;97.80;;;17.77;64.96;98283.63;5026186;28;20065;-42
2022/07/10 02:26:15;;;;;;;13.23;11.82;;;17.40;97.10;;;17.83;64.69;98289.06;5040491;28;20055;-42
2022/07/10 02:28:43;;;;;;;11.07;9.98;;;17.50;96.80;;;17.83;65.05;98291.75;5028342;28;20053;-41
2022/07/10 02:31:11;;;;;;;11.82;10.63;;;17.50;97.00;;;17.85;64.62;98294.31;5030088;28;20049;-42
2022/07/10 02:33:38;;;;;;;12.95;11.43;;;17.40;97.70;;;17.73;65.36;98296.66;5030650;28;20045;-41
2022/07/10 02:36:07;;;;;;;12.50;10.38;;;17.30;98.30;;;17.74;65.23;98294.78;5029029;28;20041;-44
2022/07/10 02:38:34;;;;;;;12.27;10.38;;;17.30;98.80;;;17.60;65.98;98297.34;5028424;28;20049;-41
2022/07/10 02:41:03;;;;;;;11.52;10.02;;;17.20;99.90;;;17.46;66.34;98301.72;5029066;28;20045;-41
2022/07/10 02:43:30;;;;;;;11.73;10.50;;;17.00;99.90;;;17.31;66.79;98301.78;5028732;28;20266;-42
2022/07/10 02:45:58;;;;;;;11.43;9.63;;;16.90;99.90;;;17.21;67.69;98303.91;5029773;28;20067;-42
2022/07/10 02:48:26;;;;;;;12.35;11.02;;;16.80;99.90;;;17.09;68.14;98300.03;5028422;28;20041;-42
2022/07/10 02:50:54;;;;;;;12.82;10.65;;;16.80;99.90;;;17.06;68.03;98295.88;5029280;28;20260;-42
2022/07/10 02:53:22;;;;;;;11.80;10.60;;;16.70;99.90;;;16.96;68.56;98305.22;5028600;28;20053;-42
2022/07/10 02:55:49;;;;;;;12.15;10.95;;;16.70;99.90;;;16.79;69.51;98307.22;5029895;28;20057;-42
2022/07/10 02:58:19;;;;;;;13.85;11.10;;;16.50;99.90;;;16.69;69.75;98307.50;5029943;28;20063;-43
2022/07/10 03:00:47;;;;;;;13.82;11.73;;;16.40;99.90;;;16.62;70.24;98301.22;5028771;28;20346;-42
2022/07/10 03:03:17;;;;;;;13.60;10.70;;;16.40;99.90;;;16.66;70.01;98299.81;5030042;28;20231;-42
2022/07/10 03:05:46;;;;;;;16.20;11.85;;;16.40;99.90;;;16.63;70.21;98308.25;5029306;28;20053;-44
2022/07/10 03:08:13;;;;;;;14.70;11.63;;;16.30;99.90;;;16.60;70.48;98308.63;5028501;28;20049;-43
2022/07/10 03:10:41;;;;;;;14.05;12.57;;;16.30;99.90;;;16.57;70.29;98304.44;5029183;28;20067;-42
2022/07/10 03:13:09;;;;;;;12.90;11.52;;;16.30;99.90;;;16.59;70.41;98310.47;5029283;28;20400;-42
2022/07/10 03:15:37;;;;;;;12.65;11.20;;;16.30;99.90;;;16.70;69.83;98311.88;5029166;28;20116;-42
2022/07/10 03:18:05;;;;;;;13.25;11.95;;;16.40;99.90;;;16.77;69.55;98307.44;5029059;28;20083;-42
2022/07/10 03:20:33;;;;;;;12.43;11.13;;;16.50;99.90;;;16.84;69.99;98304.84;5028845;28;20544;-41
2022/07/10 03:23:01;;;;;;;12.75;11.15;;;16.60;99.90;;;16.87;69.24;98304.50;5028660;28;20049;-41
2022/07/10 03:25:29;;;;;;;14.40;11.85;;;16.50;99.90;;;16.92;68.88;98308.31;5029248;28;20057;-42
2022/07/10 03:27:56;;;;;;;13.38;12.00;;;16.60;99.90;;;16.98;68.55;98306.69;5029083;28;20034;-41
2022/07/10 03:30:24;;;;;;;12.88;11.10;;;16.60;99.90;;;17.02;68.19;98310.72;5028278;28;20045;-41
2022/07/10 03:32:52;;;;;;;12.35;11.10;;;16.60;99.90;;;16.94;68.27;98308.09;5028241;28;20243;-41
2022/07/10 03:35:20;;;;;;;12.63;11.32;;;16.50;99.90;;;16.62;69.71;98320.03;5028659;28;20235;-44
2022/07/10 03:37:48;;;;;;;18.35;12.00;;;16.10;99.90;;;16.64;68.99;98321.50;5027993;28;20061;-41
2022/07/10 03:40:15;;;;;;;13.90;10.95;;;16.10;99.90;;;16.61;69.38;98321.84;5028151;28;20061;-42
2022/07/10 03:42:43;;;;;;;14.32;11.32;;;16.20;99.90;;;16.58;69.29;98316.88;5028030;28;20053;-43
2022/07/10 03:45:11;;;;;;;11.88;10.38;;;16.10;99.90;;;16.68;69.05;98317.44;5028315;28;20049;-42
2022/07/10 03:47:39;;;;;;;14.65;10.63;;;16.30;99.90;;;16.57;69.36;98323.25;5027084;28;20061;-41
2022/07/10 03:50:07;;;;;;;12.85;10.52;;;16.20;99.90;;;16.54;69.88;98320.94;5027920;28;20374;-43
2022/07/10 03:52:35;;;;;;;11.85;10.57;;;16.10;99.90;;;16.14;71.72;98317.59;5027484;28;20053;-41
2022/07/10 03:55:04;;;;;;;12.13;9.95;;;16.00;99.90;;;16.29;70.48;98317.63;5028023;28;20056;-41
2022/07/10 04:00:18;;;;;;;12.55;10.82;;;16.00;99.90;;;16.24;70.63;98317.34;5028528;28;20059;-42
2022/07/10 04:02:46;;;;;;;11.52;9.82;;;15.90;99.90;;;16.23;70.79;98318.38;5028362;28;20063;-41
2022/07/10 04:05:14;;;;;;;12.02;9.88;;;15.90;99.90;;;16.27;70.51;98317.81;5028460;28;20056;-41
2022/07/10 04:07:41;;;;;;;11.65;9.55;;;15.90;99.90;;;16.33;70.14;98325.16;5027534;28;20064;-41
2022/07/10 04:10:09;;;;;;;12.98;9.77;;;16.00;99.90;;;16.26;70.76;98323.38;5027006;28;20065;-41
2022/07/10 04:12:37;;;;;;;13.50;10.65;;;16.00;99.90;;;16.24;70.59;98320.03;5027586;28;20041;-41
2022/07/10 04:15:06;;;;;;;13.77;9.52;;;15.90;99.90;;;16.21;70.58;98321.22;5027327;28;20046;-41
2022/07/10 04:17:34;;;;;;;11.48;10.27;;;15.90;99.90;;;16.23;70.72;98321.88;5027464;28;20042;-41
2022/07/10 04:20:02;;;;;;;12.00;9.65;;;15.90;99.90;;;16.24;70.71;98322.72;5027452;28;20067;-41
2022/07/10 04:22:37;;;;;;;12.05;9.38;;;15.90;99.90;;;16.18;71.13;98329.63;5027959;28;20046;-41
2022/07/10 04:25:05;;;;;;;10.82;9.13;;;15.90;99.90;;;16.21;70.88;98320.41;5027531;28;20053;-42
2022/07/10 04:27:33;;;;;;;13.55;9.98;;;15.90;99.90;;;16.22;70.85;98317.50;5027705;28;20060;-41
2022/07/10 04:30:03;;;;;;;12.65;9.23;;;15.80;99.90;;;16.25;70.58;98325.22;5026840;28;20518;-41
2022/07/10 04:32:31;;;;;;;11.52;10.43;;;15.90;99.90;;;16.33;70.34;98327.84;5026969;28;20045;-40
2022/07/10 04:35:00;;;;;;;11.23;9.95;;;16.00;99.90;;;16.25;70.41;98321.72;5027966;28;20444;-41
2022/07/10 04:37:29;;;;;;;10.73;8.98;;;15.90;99.90;;;16.20;70.42;98324.91;5026080;28;20068;-41
2022/07/10 04:39:57;;;;;;;11.05;9.05;;;15.90;99.90;;;16.18;70.59;98331.50;5027280;28;20063;-41
2022/07/10 04:42:25;;;;;;;10.52;9.40;;;15.90;99.90;;;16.19;70.63;98336.69;5026498;28;20059;-41
2022/07/10 04:44:54;;;;;;;10.90;8.98;;;15.90;99.90;;;16.00;71.41;98329.94;5027185;28;20259;-41
2022/07/10 04:47:22;;;;;;;11.82;8.98;;;15.80;99.90;;;16.12;70.67;98331.19;5026971;28;20061;-40
2022/07/10 04:49:49;;;;;;;9.88;8.88;;;15.80;99.90;;;16.17;70.59;98335.19;5027669;28;20057;-41
2022/07/10 04:52:17;;;;;;;14.52;8.85;;;15.90;99.90;;;16.25;70.41;98329.78;5027326;28;20042;-41
2022/07/10 04:54:45;;;;;;;10.23;8.15;;;16.00;99.90;;;16.24;70.38;98331.59;5027425;28;20041;-41
2022/07/10 04:57:13;;;;;;;11.00;8.07;;;16.00;99.90;;;16.32;69.74;98339.63;5026505;28;20375;-41
2022/07/10 04:59:41;;;;;;;8.63;7.70;;;16.10;99.90;;;16.43;69.48;98337.50;5026467;28;20049;-41
2022/07/10 05:02:09;;;;;;;8.88;7.53;;;16.20;99.90;;;16.27;69.43;98336.63;5023606;28;20045;-41
2022/07/10 05:04:37;;;;;;;9.23;6.88;;;16.00;99.90;;;16.41;69.25;98345.75;5028533;28;20060;-42
2022/07/10 05:07:04;;;;;;;10.15;7.60;;;16.10;99.90;;;16.51;69.08;98348.16;5026804;28;20053;-41
2022/07/10 05:09:32;;;;;;;10.73;7.28;;;16.30;99.90;;;16.40;68.89;98344.09;5026686;28;20053;-41
2022/07/10 05:12:00;;;;;;;7.75;6.57;;;16.10;99.90;;;16.44;68.72;98347.22;5028025;28;20053;-41
2022/07/10 05:14:28;;;;;;;8.63;6.57;;;16.10;99.90;;;16.39;68.48;98341.56;5026884;28;20247;-41
2022/07/10 05:16:56;;;;;;;8.23;6.15;;;16.00;99.90;;;16.36;68.46;98341.91;5026287;28;20045;-41
2022/07/10 05:19:24;;;;;;;8.23;6.47;;;16.00;99.90;;;16.36;68.13;98341.91;5026102;28;20057;-41
2022/07/10 05:21:51;;;;;;;8.10;6.53;;;16.00;99.90;;;16.00;68.92;98343.38;5025868;28;20053;-42
2022/07/10 05:24:19;;;;;;;7.10;6.40;;;15.80;99.90;;;16.01;68.72;98345.03;5026803;28;20060;-41
2022/07/10 05:26:47;;;;;;;6.53;5.82;;;15.70;99.90;;;15.99;68.85;98341.69;5026102;28;20264;-42
2022/07/10 05:29:15;;;;;;;9.40;6.03;;;15.70;99.90;;;15.89;68.42;98336.56;5025501;28;20055;-42
2022/07/10 05:31:42;;;;;;;6.70;5.13;;;15.70;99.90;;;15.97;68.75;98340.22;5026178;28;20337;-43
2022/07/10 05:34:10;;;;;;;7.88;5.95;;;15.70;99.90;;;16.04;68.47;98338.50;5026307;28;20045;-42
2022/07/10 05:36:38;;;;;;;7.28;5.55;;;15.80;99.90;;;16.20;68.19;98340.22;5026399;28;20045;-42
2022/07/10 05:39:06;;;;;;;6.95;4.93;;;16.00;99.90;;;16.28;67.93;98349.03;5026877;28;20352;-42
2022/07/10 05:41:34;;;;;;;6.30;4.90;;;16.10;99.90;;;16.04;67.40;98347.38;5026062;28;20056;-41
2022/07/10 05:44:02;;;;;;;8.23;4.78;;;15.90;99.90;;;15.94;67.84;98344.09;5026250;28;20061;-41
2022/07/10 05:46:30;;;;;;;7.25;4.70;;;15.80;99.90;;;16.14;67.78;98355.19;5041633;28;20057;-42
2022/07/10 05:48:58;;;;;;;6.18;4.35;;;15.90;99.90;;;16.04;67.68;98371.53;5025463;28;20045;-42
2022/07/10 05:51:25;;;;;;;4.72;4.13;;;15.90;99.90;;;16.09;67.26;98360.25;5027185;28;20061;-42
2022/07/10 05:54:00;;;;;;;4.95;4.40;;;15.90;99.90;;;16.08;66.64;98362.13;5026229;28;20052;-41
2022/07/10 05:56:28;;;;;;;8.10;4.10;;;15.90;99.90;;;16.14;66.25;98361.38;5026254;28;20057;-42
2022/07/10 05:58:56;;;;;;;4.10;3.63;;;15.90;99.90;;;16.14;65.97;98371.31;5025693;28;20049;-42
2022/07/10 06:01:26;;;;;;;5.43;3.38;;;15.90;99.90;;;16.09;65.83;98366.50;5027604;28;20060;-42
2022/07/10 06:03:54;;;;;;;5.25;2.67;;;15.90;99.90;;;16.07;65.67;98364.97;5045593;28;20365;-42
2022/07/10 06:06:22;;;;;;;5.88;3.30;;;15.80;99.90;;;16.29;65.67;98366.84;5030629;28;20063;-42
2022/07/10 06:08:49;;;;;;;6.63;3.22;;;16.10;99.90;;;16.50;65.06;98368.84;5030135;28;20063;-42
2022/07/10 06:11:17;;;;;;;6.32;3.67;;;16.40;99.90;;;16.56;64.02;98378.03;5030230;28;20053;-41
2022/07/10 06:13:45;;;;;;;4.82;2.70;;;16.40;99.90;;;16.27;63.91;98366.19;5030355;28;20327;-41
2022/07/10 06:16:13;;;;;;;3.78;2.85;;;16.10;99.90;;;16.44;63.54;98374.94;5029736;28;20049;-41
2022/07/10 06:18:41;;;;;;;9.30;2.75;;;16.30;99.90;;;16.28;62.98;98370.50;5030137;28;20052;-41
2022/07/10 06:21:10;;;;;;;6.70;3.35;;;16.10;99.90;;;16.26;62.72;98379.78;5029169;28;20340;-42
2022/07/10 06:23:37;;;;;;;4.35;2.70;;;16.00;99.90;;;16.18;62.66;98377.16;5029392;28;20053;-41
2022/07/10 06:26:05;;;;;;;5.82;2.63;;;16.00;99.90;;;16.32;62.59;98374.53;5029462;28;20051;-41
2022/07/10 06:28:36;;;;;;;4.03;2.38;;;16.10;99.90;;;16.46;62.92;98377.44;5029198;28;20364;-41
2022/07/10 06:31:05;;;;;;;4.68;2.70;;;16.30;99.90;;;16.61;62.57;98385.53;5029116;28;20045;-42
2022/07/10 06:33:35;;;;;;;8.00;2.75;;;16.50;99.90;;;16.66;61.65;98380.47;5029361;28;20049;-41
2022/07/10 06:36:03;;;;;;;2.78;2.28;;;16.60;99.90;;;16.66;61.20;98383.16;5030670;28;20370;-42
2022/07/10 06:38:32;;;;;;;4.53;2.50;;;16.60;99.90;;;16.77;60.50;98382.72;5029515;28;20049;-42
2022/07/10 06:41:00;;;;;;;4.60;2.10;;;16.70;97.00;;;16.89;60.35;98394.72;5028807;28;20349;-41
2022/07/10 06:43:27;;;;;;;3.72;2.22;;;16.80;98.40;;;16.98;59.72;98386.56;5028761;28;20054;-42
2022/07/10 06:45:56;;;;;;;2.50;1.85;;;16.90;98.00;;;17.00;59.62;98387.22;5030457;28;20061;-41
2022/07/10 06:48:26;;;;;;;3.25;2.25;;;16.90;97.60;;;16.94;59.27;98396.84;5030265;28;20076;-43
2022/07/10 06:50:55;;;;;;;3.72;2.33;;;16.80;96.10;;;16.95;59.04;98392.34;5043952;28;20351;-41
2022/07/10 06:53:26;;;;;;;4.47;3.17;;;16.80;94.90;;;16.89;59.01;98396.59;5028494;28;20060;-41
2022/07/10 06:55:54;;;;;;;3.80;2.08;;;16.80;95.80;;;16.78;57.87;98397.00;5029888;28;20048;-42
2022/07/10 06:58:22;;;;;;;3.03;2.22;;;16.70;92.00;;;16.96;58.89;98405.56;5030056;28;20049;-42
2022/07/10 07:00:50;;;;;;;3.67;2.50;;;16.80;96.30;;;16.86;58.05;98395.06;5030290;28;20057;-42
2022/07/10 07:03:18;;;;;;;4.68;2.00;;;16.80;93.10;;;17.00;57.95;98390.75;5029140;28;20255;-42
2022/07/10 07:05:46;;;;;;;4.20;2.13;;;16.90;94.60;;;17.12;58.32;98397.34;5029839;28;20440;-42
2022/07/10 07:08:13;;;;;;;2.83;2.22;;;17.00;94.40;;;17.23;57.88;98393.34;5029836;28;20057;-43
2022/07/10 07:10:41;;;;;;;5.32;2.03;;;17.20;93.50;;;17.34;57.31;98402.00;5028037;28;20240;-42
2022/07/10 07:13:09;;;;;;;4.57;2.22;;;17.40;91.00;;;17.38;56.04;98392.53;5028363;28;20057;-41
2022/07/10 07:15:39;;;;;;;4.53;2.15;;;17.40;82.20;;;17.42;55.70;98401.88;5029249;28;20057;-42
2022/07/10 07:18:07;;;;;;;3.38;1.88;;;17.40;77.10;;;17.32;54.95;98405.69;5028846;28;20427;-41
2022/07/10 07:23:23;;;;;;;3.20;1.73;;;17.10;72.80;;;17.15;54.18;98409.59;5028348;28;20543;-40
2022/07/10 07:25:51;;;;;;;5.68;2.10;;;17.00;69.20;;;17.29;55.17;98410.59;5029041;28;20236;-40
2022/07/10 07:28:20;;;;;;;5.07;2.47;;;17.10;72.80;;;17.27;55.26;98409.97;5026657;28;20053;-41
2022/07/10 07:30:49;;;;;;;6.53;1.92;;;17.10;72.00;;;17.26;54.40;98411.81;5027999;28;20068;-41
2022/07/10 07:33:18;;;;;;;8.23;1.88;;;17.00;69.80;;;17.04;54.39;98410.88;5026699;28;20059;-41
2022/07/10 07:35:46;;;;;;;4.03;1.80;;;16.80;71.20;;;17.20;54.82;98414.44;5027214;28;20056;-41
2022/07/10 07:38:15;;;;;;;10.73;2.30;;;17.00;71.70;;;17.23;54.74;98408.66;5027841;28;20236;-42
2022/07/10 07:40:43;;;;;;;3.15;2.00;;;17.00;71.60;;;17.26;54.41;98408.31;5027673;28;20077;-41
2022/07/10 07:43:12;;;;;;;4.18;2.33;;;17.20;69.00;;;17.34;53.74;98410.88;5027183;28;20252;-41
2022/07/10 07:45:41;;;;;;;4.03;2.05;;;17.20;68.90;;;17.37;53.30;98412.38;5027476;28;20067;-42
2022/07/10 07:48:09;;;;;;;4.05;1.77;;;17.20;68.20;;;17.45;53.88;98410.44;5027436;28;20357;-42
2022/07/10 07:50:37;;;;;;;3.00;2.33;;;17.40;69.30;;;17.46;52.88;98405.88;5026559;28;20041;-42
2022/07/10 07:53:06;;;;;;;3.13;2.05;;;17.40;67.30;;;17.38;52.90;98404.13;5024277;28;20080;-41
2022/07/10 07:55:36;;;;;;;6.60;2.08;;;17.30;65.10;;;17.49;53.02;98406.34;5018645;28;20049;-41
2022/07/10 07:58:04;;;;;;;4.40;1.40;;;17.50;65.10;;;17.59;52.74;98397.97;5007786;28;20053;-42
2022/07/10 08:00:32;;;;;;;5.38;1.88;;;17.70;64.80;;;17.67;51.85;98397.88;5027339;28;20056;-42
2022/07/10 08:03:00;;;;;;;4.80;1.80;;;17.80;61.70;;;17.77;52.10;98396.75;5032172;28;20053;-41
2022/07/10 08:05:29;;;;;;;4.32;1.85;;;17.90;63.10;;;17.81;51.75;98403.41;5036953;28;20045;-41
2022/07/10 08:08:04;;;;;;;2.05;1.40;;;17.90;62.10;;;17.94;51.97;98392.81;5033668;28;20378;-41
2022/07/10 08:10:33;;;;;;;11.23;2.20;;;18.00;62.30;;;18.05;51.65;98383.44;5029517;28;20045;-41
2022/07/10 08:13:01;;;;;;;4.63;2.20;;;18.10;60.90;;;17.75;49.32;98396.91;5029972;28;20037;-41
2022/07/10 08:15:30;;;;;;;4.38;1.73;;;17.80;57.90;;;17.70;49.79;98396.66;5034128;28;20053;-42
2022/07/10 08:17:59;;;;;;;3.03;2.08;;;17.50;58.90;;;17.38;50.57;98396.03;5051676;28;20059;-42
2022/07/10 08:20:27;;;;;;;3.53;1.85;;;17.20;60.40;;;17.52;50.82;98384.44;5025576;28;20061;-42
2022/07/10 08:22:55;;;;;;;2.85;1.92;;;17.30;61.70;;;17.73;50.99;98379.28;5026405;28;20060;-43
2022/07/10 08:25:30;;;;;;;2.42;1.70;;;17.70;61.70;;;17.82;50.23;98387.06;5024755;28;20072;-43
2022/07/10 08:28:03;;;;;;;4.38;2.83;;;17.90;58.40;;;17.77;49.32;98383.28;5027120;28;20053;-43
2022/07/10 08:30:31;;;;;;;2.53;2.17;;;17.80;58.30;;;17.65;49.87;98381.06;5026670;28;20055;-41
2022/07/10 08:32:59;;;;;;;3.17;1.67;;;17.50;59.60;;;17.42;49.64;98377.66;5026317;28;20057;-42
2022/07/10 08:35:27;;;;;;;3.42;1.77;;;17.20;58.50;;;17.55;49.94;98369.75;5027033;28;20438;-41
2022/07/10 08:37:55;;;;;;;3.72;2.00;;;17.30;59.30;;;17.56;49.91;98371.41;5027935;28;20071;-42
2022/07/10 08:40:23;;;;;;;2.50;2.30;;;17.40;58.90;;;17.78;49.86;98374.19;5027436;28;20059;-43
2022/07/10 08:42:51;;;;;;;3.75;1.65;;;17.80;59.20;;;17.97;49.55;98368.22;5027348;28;20068;-42
2022/07/10 08:45:30;;;;;;;3.38;1.67;;;18.00;58.30;;;18.05;49.23;98361.88;5063609;28;20397;-42
2022/07/10 08:48:04;;;;;;;2.60;2.28;;;18.20;57.40;;;18.14;49.15;98367.97;5042021;28;20053;-42
2022/07/10 08:50:36;;;;;;;4.13;2.03;;;18.30;57.20;;;18.20;49.03;98367.19;5043571;28;20095;-41
2022/07/10 08:53:22;;;;;;;4.10;1.65;;;18.30;57.40;;;17.99;47.31;98368.84;5041842;28;20057;-42
2022/07/10 08:55:50;;;;;;;2.80;1.70;;;18.10;55.00;;;18.22;48.94;98370.50;5042395;28;20194;-41
2022/07/10 08:58:19;;;;;;;2.20;1.58;;;18.30;57.70;;;18.15;48.13;98370.47;5042847;28;20049;-41
2022/07/10 09:00:47;;;;;;;2.83;1.85;;;18.20;56.10;;;18.31;48.72;98366.66;5042084;28;20060;-43
2022/07/10 09:03:15;;;;;;;3.60;1.98;;;18.40;56.60;;;18.19;46.20;98369.06;5042192;28;20761;-44
2022/07/10 09:05:43;;;;;;;2.15;1.60;;;18.40;52.60;;;18.37;47.34;98365.06;5044774;28;20075;-42
2022/07/10 09:08:30;;;;;;;2.95;2.22;;;18.40;55.00;;;18.11;46.63;98377.25;5042830;28;20630;-40
2022/07/10 09:11:18;;;;;;;4.60;1.70;;;18.10;54.10;;;18.31;47.18;98366.66;5042151;28;20053;-41
2022/07/10 09:13:54;;;;;;;3.15;1.80;;;18.40;54.90;;;18.52;47.59;98373.09;5042671;28;20053;-43
2022/07/10 09:16:30;;;;;;;3.63;2.40;;;18.60;55.10;;;18.62;47.87;98368.19;5043161;28;20366;-40
2022/07/10 09:19:23;;;;;;;2.15;1.40;;;18.80;55.10;;;18.66;47.76;98382.94;5042320;28;20108;-41
2022/07/10 09:21:54;;;;;;;2.22;1.60;;;18.90;54.90;;;18.44;46.95;98371.38;5042590;28;20056;-41
2022/07/10 09:24:23;;;;;;;4.05;1.85;;;18.60;54.70;;;18.57;47.19;98371.47;5042227;28;20056;-40
2022/07/10 09:26:59;;;;;;;2.40;1.60;;;18.70;54.40;;;18.48;46.16;98383.41;5042677;28;20041;-42
2022/07/10 09:29:27;;;;;;;6.22;2.42;;;18.60;53.50;;;18.72;46.74;98379.47;5043508;28;20049;-42
2022/07/10 09:32:01;;;;;;;4.43;1.95;;;18.80;54.10;;;18.74;46.74;98372.00;5042368;28;20045;-42
2022/07/10 09:34:40;;;;;;;2.83;2.45;;;18.90;54.20;;;18.92;45.82;98376.09;5042763;28;20053;-40
2022/07/10 09:37:23;;;;;;;3.72;2.03;;;19.10;52.00;;;18.73;45.03;98372.19;5041709;28;20049;-39
2022/07/10 09:40:04;;;;;;;3.30;2.00;;;18.90;51.20;;;18.81;45.55;98383.72;5042718;28;20044;-40
2022/07/10 09:42:40;;;;;;;4.00;2.05;;;18.80;52.70;;;18.81;45.97;98380.19;5042056;28;20330;-39
2022/07/10 09:45:11;;;;;;;4.20;2.38;;;18.70;54.00;;;18.71;46.52;98394.00;5043254;28;20104;-39
2022/07/10 09:47:40;;;;;;;5.80;2.10;;;18.70;54.40;;;18.50;47.15;98386.75;5041202;28;20049;-39
2022/07/10 09:50:22;;;;;;;3.47;2.28;;;18.40;55.10;;;18.57;47.05;98373.31;5043620;28;20055;-39
2022/07/10 09:52:55;;;;;;;4.13;1.98;;;18.40;55.20;;;18.56;46.84;98379.75;5041062;28;20229;-39
2022/07/10 09:55:29;;;;;;;4.18;1.83;;;18.50;54.90;;;18.55;47.35;98387.00;5036640;28;20048;-39
2022/07/10 09:58:02;;;;;;;3.08;2.17;;;18.50;55.60;;;18.56;46.96;98383.28;5029070;28;20340;-39
2022/07/10 10:00:33;;;;;;;4.20;2.40;;;18.40;55.00;;;18.00;48.43;98377.75;5029167;28;20064;-39
2022/07/10 10:03:04;;;;;;;6.07;2.10;;;18.00;56.60;;;18.34;48.46;98377.06;5028037;28;20057;-39
2022/07/10 10:06:03;;;;;;;4.07;2.10;;;18.30;57.00;;;18.33;48.39;98383.47;5027947;28;20056;-39
2022/07/10 10:08:56;;;;;;;10.10;2.65;;;18.60;56.10;;;18.28;48.02;98372.44;5014479;28;20605;-39
2022/07/10 10:11:27;;;;;;;4.63;2.20;;;18.40;56.40;;;18.51;48.06;98374.94;5028606;28;20052;-40
2022/07/10 10:13:56;;;;;;;1.95;1.70;;;18.70;55.50;;;18.35;47.05;98381.44;5029163;28;20049;-39
2022/07/10 10:16:27;;;;;;;2.55;2.00;;;18.50;53.90;;;18.14;46.66;98373.34;5027224;28;20259;-39
2022/07/10 10:21:49;;;;;;;2.28;1.83;;;18.30;53.60;;;18.22;46.14;98370.50;5029040;28;20051;-40
2022/07/10 10:24:18;;;;;;;4.72;2.00;;;18.30;53.20;;;18.32;46.60;98362.09;5027172;28;20344;-40
2022/07/10 10:26:46;;;;;;;3.88;1.80;;;18.40;53.30;;;18.35;45.43;98369.81;5029271;28;20042;-40
2022/07/10 10:29:14;;;;;;;2.55;1.52;;;18.60;51.60;;;18.43;45.94;98372.38;5028383;28;20045;-40
2022/07/10 10:31:43;;;;;;;4.03;2.20;;;18.60;52.20;;;18.17;45.15;98368.41;5029452;28;20336;-40
2022/07/10 10:34:11;;;;;;;2.22;1.55;;;18.30;52.40;;;18.26;45.28;98369.09;5027752;28;20460;-40
2022/07/10 10:36:44;;;;;;;2.22;1.55;;;18.30;51.50;;;18.30;45.24;98357.75;5026852;28;20055;-40